Time;durP1;ratioP1;P1;durP2;ratioP2;P2;SDS_P1;SDS_P2;PMS_P1;PMS_P2;Temp;Humidity;BMP_temperature;BMP_pressure;BME280_temperature;BME280_humidity;BME280_pressure;Samples;Min_cycle;Max_cycle;Signal;HPM_P1;HPM_P2
2022/05/30 00:01:21;;;;;;;7.03;1.88;;;;;;;12.24;58.60;101287.41;4992389;28;20030;-62
2022/05/30 00:03:47;;;;;;;6.25;1.70;;;;;;;12.18;58.98;101282.84;4991831;28;20030;-62
2022/05/30 00:06:15;;;;;;;11.38;2.00;;;;;;;12.12;59.14;101275.53;5003418;28;20176;-62
2022/05/30 00:08:40;;;;;;;6.63;1.70;;;;;;;12.09;58.66;101276.03;5031124;28;20064;-62
2022/05/30 00:11:08;;;;;;;6.45;1.60;;;;;;;12.09;59.21;101276.03;5031133;28;20029;-61
2022/05/30 00:13:37;;;;;;;5.25;1.50;;;;;;;12.10;59.09;101277.69;5031652;28;20029;-61
2022/05/30 00:16:08;;;;;;;8.15;1.80;;;;;;;12.08;59.24;101277.13;5025692;28;20115;-62
2022/05/30 00:18:34;;;;;;;5.70;1.38;;;;;;;12.12;59.12;101278.31;5000163;28;20025;-61
2022/05/30 00:20:59;;;;;;;8.88;2.20;;;;;;;12.12;59.02;101272.75;5020747;28;20030;-61
2022/05/30 00:23:25;;;;;;;5.72;1.52;;;;;;;12.08;59.14;101275.19;5012661;28;20030;-61
2022/05/30 00:25:51;;;;;;;6.45;1.90;;;;;;;12.07;59.17;101283.78;5011229;28;20042;-62
2022/05/30 00:28:19;;;;;;;8.00;1.88;;;;;;;12.07;59.38;101279.06;5011374;28;20758;-61
2022/05/30 00:30:46;;;;;;;6.15;1.88;;;;;;;12.00;59.11;101276.44;5011033;28;20026;-62
2022/05/30 00:33:12;;;;;;;6.75;2.08;;;;;;;11.99;59.29;101287.84;4999049;28;20113;-61
2022/05/30 00:35:39;;;;;;;6.63;1.83;;;;;;;11.98;59.48;101273.06;5006729;28;20109;-62
2022/05/30 00:38:05;;;;;;;8.30;2.15;;;;;;;11.96;59.62;101271.63;5010634;28;20026;-62
2022/05/30 00:40:33;;;;;;;5.15;1.92;;;;;;;11.94;59.45;101271.03;5008647;28;20060;-62
2022/05/30 00:43:20;;;;;;;9.05;2.15;;;;;;;12.03;59.85;101269.53;5011475;28;20124;-61
2022/05/30 00:45:45;;;;;;;5.07;2.00;;;;;;;11.97;59.86;101271.38;5012726;28;20612;-62
2022/05/30 00:48:14;;;;;;;12.23;2.35;;;;;;;11.96;59.87;101266.91;5007688;28;20117;-62
2022/05/30 00:50:43;;;;;;;7.10;1.98;;;;;;;11.98;59.87;101266.66;4999184;28;20026;-62
2022/05/30 00:53:09;;;;;;;8.35;1.90;;;;;;;11.94;59.95;101262.69;4998718;28;20035;-62
2022/05/30 00:55:35;;;;;;;5.78;1.67;;;;;;;11.94;60.10;101259.91;5006673;28;20037;-61
2022/05/30 00:58:02;;;;;;;7.85;2.20;;;;;;;11.88;60.60;101258.16;5007697;28;20030;-62
2022/05/30 01:00:28;;;;;;;9.20;2.10;;;;;;;11.89;60.54;101262.59;5010356;28;20783;-62
2022/05/30 01:08:28;;;;;;;5.03;1.50;;;;;;;11.90;60.75;101259.56;4997374;28;20104;-61
2022/05/30 01:10:54;;;;;;;8.00;2.28;;;;;;;11.86;60.80;101255.59;5010134;28;20069;-62
2022/05/30 01:13:19;;;;;;;7.80;1.90;;;;;;;11.90;60.52;101256.78;5016460;28;20034;-61
2022/05/30 01:15:44;;;;;;;6.28;1.80;;;;;;;11.82;60.68;101251.59;5010398;28;20026;-61
2022/05/30 01:18:21;;;;;;;8.30;2.20;;;;;;;11.80;60.81;101253.81;5010622;28;20113;-62
2022/05/30 01:20:52;;;;;;;7.07;2.00;;;;;;;11.78;61.33;101256.81;5010050;28;20018;-62
2022/05/30 01:23:17;;;;;;;5.03;1.95;;;;;;;11.76;61.57;101247.91;4997874;28;20027;-61
2022/05/30 01:26:07;;;;;;;10.20;2.25;;;;;;;11.80;60.86;101257.44;5006962;28;20034;-62
2022/05/30 01:28:39;;;;;;;7.03;2.00;;;;;;;11.77;61.53;101259.88;4997372;28;20484;-61
2022/05/30 01:31:05;;;;;;;7.78;2.38;;;;;;;11.71;61.67;101247.81;5013354;28;20034;-61
2022/05/30 01:33:32;;;;;;;6.55;2.35;;;;;;;11.73;61.47;101245.63;5014665;28;20092;-63
2022/05/30 01:35:57;;;;;;;8.60;2.30;;;;;;;11.77;61.60;101255.16;5014151;28;20117;-62
2022/05/30 01:38:24;;;;;;;8.98;2.00;;;;;;;11.77;61.22;101245.97;5008902;28;20105;-63
2022/05/30 01:40:50;;;;;;;10.05;2.80;;;;;;;11.79;61.38;101247.41;5003279;28;20108;-62
2022/05/30 01:43:16;;;;;;;10.52;2.33;;;;;;;11.76;61.26;101236.78;5002100;28;20026;-63
2022/05/30 01:45:42;;;;;;;11.75;2.40;;;;;;;11.70;61.48;101239.72;5010517;28;20026;-62
2022/05/30 01:48:08;;;;;;;9.75;2.65;;;;;;;11.69;61.85;101238.03;4997745;28;20108;-62
2022/05/30 01:50:34;;;;;;;9.57;2.38;;;;;;;11.69;61.73;101236.09;5014377;28;20041;-63
2022/05/30 01:53:03;;;;;;;8.15;2.22;;;;;;;11.69;61.96;101243.59;5014378;28;20080;-62
2022/05/30 01:55:28;;;;;;;9.10;2.70;;;;;;;11.66;61.92;101232.97;4999877;28;20022;-62
2022/05/30 01:57:53;;;;;;;7.07;2.53;;;;;;;11.66;61.80;101238.53;5010908;28;20030;-62
2022/05/30 02:00:19;;;;;;;8.63;2.35;;;;;;;11.64;62.34;101240.75;4999449;28;20129;-62
2022/05/30 02:02:44;;;;;;;9.07;2.20;;;;;;;11.63;62.07;101234.34;5005615;28;20030;-62
2022/05/30 02:05:10;;;;;;;8.80;2.55;;;;;;;11.59;62.32;101235.06;5013585;28;20079;-62
2022/05/30 02:07:39;;;;;;;7.70;2.28;;;;;;;11.63;62.13;101236.25;5013886;28;20490;-62
2022/05/30 02:10:05;;;;;;;6.50;2.58;;;;;;;11.62;62.21;101240.13;4997940;28;20032;-62
2022/05/30 02:12:30;;;;;;;6.95;2.53;;;;;;;11.57;62.58;101235.31;5014144;28;20022;-64
2022/05/30 02:14:56;;;;;;;11.45;2.47;;;;;;;11.62;62.60;101231.78;5014131;28;20026;-62
2022/05/30 02:17:21;;;;;;;7.88;2.50;;;;;;;11.55;62.63;101241.16;5000137;28;20026;-62
2022/05/30 02:19:47;;;;;;;7.55;2.17;;;;;;;11.55;62.68;101235.59;5011039;28;20034;-62
2022/05/30 02:22:29;;;;;;;9.88;2.90;;;;;;;11.59;62.77;101235.91;5013750;28;20022;-62
2022/05/30 02:24:55;;;;;;;9.43;3.00;;;;;;;11.61;62.79;101233.72;5003729;28;20027;-63
2022/05/30 02:27:20;;;;;;;9.45;2.80;;;;;;;11.58;63.08;101231.44;5006990;28;20712;-62
2022/05/30 02:29:46;;;;;;;11.75;3.47;;;;;;;11.54;63.49;101231.09;4996708;28;20030;-62
2022/05/30 02:32:14;;;;;;;9.63;3.17;;;;;;;11.58;63.17;101225.03;5013564;28;20656;-62
2022/05/30 02:37:23;;;;;;;6.15;2.83;;;;;;;11.54;63.63;101227.47;4999457;28;20108;-62
2022/05/30 02:39:52;;;;;;;10.23;3.15;;;;;;;11.53;63.50;101232.19;5009725;28;20045;-62
2022/05/30 02:42:20;;;;;;;6.47;2.90;;;;;;;11.49;63.62;101228.25;4997089;28;20037;-62
2022/05/30 02:44:45;;;;;;;8.07;3.22;;;;;;;11.48;63.86;101225.72;5004228;28;20018;-61
2022/05/30 02:47:10;;;;;;;9.27;3.47;;;;;;;11.49;63.68;101221.84;5007032;28;20538;-61
2022/05/30 02:49:38;;;;;;;10.73;3.60;;;;;;;11.47;64.03;101219.28;5012906;28;20030;-63
2022/05/30 02:52:04;;;;;;;10.45;3.60;;;;;;;11.40;64.16;101218.63;5009376;28;20126;-62
2022/05/30 02:54:30;;;;;;;6.68;3.53;;;;;;;11.42;63.99;101229.50;4999775;28;20120;-62
2022/05/30 02:56:58;;;;;;;7.57;3.75;;;;;;;11.41;64.13;101225.88;5002982;28;20034;-62
2022/05/30 02:59:27;;;;;;;8.18;3.58;;;;;;;11.35;64.21;101224.06;5006478;28;20072;-62
2022/05/30 03:01:53;;;;;;;9.68;4.40;;;;;;;11.38;64.13;101225.53;5010661;28;20041;-61
2022/05/30 03:04:19;;;;;;;10.38;3.80;;;;;;;11.34;64.42;101227.13;5012645;28;20021;-62
2022/05/30 03:06:45;;;;;;;10.43;4.38;;;;;;;11.33;64.50;101229.06;5011572;28;20021;-62
2022/05/30 03:09:11;;;;;;;9.52;4.53;;;;;;;11.30;64.72;101224.81;5012870;28;20085;-61
2022/05/30 03:11:36;;;;;;;7.50;4.63;;;;;;;11.31;64.58;101225.66;5012185;28;20090;-61
2022/05/30 03:14:08;;;;;;;10.88;4.05;;;;;;;11.26;64.83;101239.47;5012343;28;20140;-61
2022/05/30 03:16:34;;;;;;;13.00;4.45;;;;;;;11.23;64.61;101226.91;5012162;28;20493;-62
2022/05/30 03:18:59;;;;;;;8.20;4.60;;;;;;;11.24;64.61;101227.78;5012165;28;20057;-62
2022/05/30 03:21:27;;;;;;;7.07;4.53;;;;;;;11.23;64.89;101235.25;4998786;28;20030;-62
2022/05/30 03:23:53;;;;;;;9.18;4.50;;;;;;;11.17;65.09;101232.63;5008679;28;20531;-62
2022/05/30 03:26:19;;;;;;;10.13;4.70;;;;;;;11.19;65.23;101234.06;4997005;28;20113;-62
2022/05/30 03:28:44;;;;;;;10.23;5.15;;;;;;;11.16;65.02;101237.34;5004192;28;20018;-61
2022/05/30 03:31:13;;;;;;;11.70;5.25;;;;;;;11.14;64.93;101236.75;5005909;28;20385;-61
2022/05/30 03:33:42;;;;;;;13.40;5.10;;;;;;;11.10;65.32;101238.31;5011859;28;20676;-62
2022/05/30 03:36:13;;;;;;;10.35;4.43;;;;;;;11.14;65.24;101247.00;4996193;28;20033;-62
2022/05/30 03:38:39;;;;;;;11.85;5.18;;;;;;;11.09;65.33;101236.66;5004183;28;20097;-61
2022/05/30 03:41:07;;;;;;;10.50;5.07;;;;;;;11.15;65.13;101243.13;5002899;28;20050;-61
2022/05/30 03:43:32;;;;;;;10.65;5.15;;;;;;;11.14;65.22;101247.00;4997358;28;20057;-62
2022/05/30 03:46:03;;;;;;;12.65;5.00;;;;;;;11.12;65.20;101249.19;5011355;28;20080;-61
2022/05/30 03:48:28;;;;;;;13.45;5.03;;;;;;;11.11;65.13;101250.28;5011669;28;20018;-62
2022/05/30 03:50:53;;;;;;;9.32;4.65;;;;;;;11.10;65.36;101254.16;5011555;28;20116;-61
2022/05/30 03:53:18;;;;;;;12.80;4.97;;;;;;;11.06;65.29;101251.03;4997749;28;20140;-61
2022/05/30 03:55:45;;;;;;;7.32;4.80;;;;;;;11.05;65.41;101254.91;5007871;28;20089;-61
2022/05/30 03:58:11;;;;;;;11.55;5.40;;;;;;;11.00;65.47;101252.88;4996029;28;20034;-62
2022/05/30 04:00:41;;;;;;;17.80;5.57;;;;;;;11.00;65.33;101249.22;5011625;28;20033;-61
2022/05/30 04:03:07;;;;;;;10.30;5.63;;;;;;;11.00;65.74;101252.88;5011102;28;20355;-61
2022/05/30 04:05:33;;;;;;;11.27;5.80;;;;;;;11.01;65.42;101251.78;4996537;28;20031;-61
2022/05/30 04:07:58;;;;;;;12.10;5.60;;;;;;;11.01;65.65;101254.53;5009959;28;20030;-62
2022/05/30 04:10:25;;;;;;;10.52;5.50;;;;;;;11.01;65.77;101245.38;5019681;28;20381;-62
2022/05/30 04:12:57;;;;;;;14.70;6.05;;;;;;;10.99;65.93;101245.59;5011509;28;20389;-61
2022/05/30 04:15:23;;;;;;;13.35;5.63;;;;;;;11.02;65.64;101244.28;4997515;28;20436;-61
2022/05/30 04:17:49;;;;;;;11.63;5.50;;;;;;;11.00;65.70;101246.44;5008501;28;20112;-62
2022/05/30 04:20:16;;;;;;;11.18;5.20;;;;;;;11.03;65.62;101240.41;5011312;28;20487;-62
2022/05/30 04:22:44;;;;;;;12.88;5.30;;;;;;;11.03;65.51;101235.69;5002924;28;20534;-62
2022/05/30 04:25:10;;;;;;;13.90;5.70;;;;;;;11.01;65.83;101237.88;5006617;28;20042;-61
2022/05/30 04:27:35;;;;;;;11.20;5.97;;;;;;;11.01;65.69;101248.16;5011111;28;20069;-62
2022/05/30 04:30:00;;;;;;;10.10;5.25;;;;;;;11.04;65.46;101240.16;5008283;28;20137;-61
2022/05/30 04:32:26;;;;;;;11.30;5.57;;;;;;;11.02;65.54;101245.13;4997404;28;20076;-61
2022/05/30 04:34:55;;;;;;;9.68;5.32;;;;;;;11.04;65.57;101251.28;5001646;28;20034;-61
2022/05/30 04:37:20;;;;;;;10.30;5.38;;;;;;;11.02;65.20;101250.66;5004251;28;20075;-61
2022/05/30 04:39:45;;;;;;;9.65;5.40;;;;;;;11.02;65.82;101256.22;5003323;28;20493;-62
2022/05/30 04:42:13;;;;;;;13.43;5.28;;;;;;;11.03;65.50;101251.50;5011001;28;20914;-62
2022/05/30 04:44:38;;;;;;;12.98;6.40;;;;;;;11.02;65.39;101256.22;5002883;28;20174;-60
2022/05/30 04:47:07;;;;;;;12.45;6.53;;;;;;;10.99;65.38;101265.03;5002330;28;20141;-61
2022/05/30 04:49:32;;;;;;;11.82;6.13;;;;;;;10.99;65.49;101261.44;4995700;28;20533;-61
2022/05/30 04:51:58;;;;;;;13.48;5.70;;;;;;;11.03;65.30;101265.41;5007074;28;20105;-61
2022/05/30 04:54:24;;;;;;;13.65;5.88;;;;;;;11.01;65.89;101248.16;4999861;28;20096;-61
2022/05/30 04:56:50;;;;;;;11.45;6.07;;;;;;;11.03;65.25;101260.69;5010946;28;20038;-61
2022/05/30 04:59:19;;;;;;;14.85;5.93;;;;;;;11.04;65.35;101259.63;4998023;28;20026;-61
2022/05/30 05:01:44;;;;;;;11.75;6.40;;;;;;;11.03;65.62;101262.63;5011003;28;20052;-62
2022/05/30 05:04:11;;;;;;;14.65;6.10;;;;;;;11.03;65.23;101262.63;5011037;28;20477;-62
2022/05/30 05:06:37;;;;;;;12.43;6.55;;;;;;;11.03;65.58;101263.47;5013298;28;20482;-62
2022/05/30 05:09:18;;;;;;;12.38;5.95;;;;;;;11.13;65.29;101256.44;5014530;28;20128;-61
2022/05/30 05:11:47;;;;;;;13.55;5.93;;;;;;;11.05;65.64;101258.53;5014171;28;20396;-62
2022/05/30 05:14:15;;;;;;;12.45;6.25;;;;;;;11.07;65.65;101261.88;4999299;28;20033;-62
2022/05/30 05:16:41;;;;;;;12.82;5.82;;;;;;;11.14;65.62;101258.97;5011620;28;20131;-61
2022/05/30 05:19:06;;;;;;;15.40;6.57;;;;;;;11.12;65.56;101261.16;5022711;28;20026;-61
2022/05/30 05:21:34;;;;;;;12.30;6.22;;;;;;;11.12;65.65;101257.50;5014581;28;20048;-61
2022/05/30 05:24:02;;;;;;;14.30;6.38;;;;;;;11.15;65.65;101262.59;4999976;28;20089;-62
2022/05/30 05:26:27;;;;;;;10.77;5.63;;;;;;;11.23;65.54;101268.59;5013703;28;20084;-61
2022/05/30 05:28:54;;;;;;;16.58;5.90;;;;;;;11.27;65.31;101267.00;5004872;28;20544;-61
2022/05/30 05:31:26;;;;;;;10.13;5.30;;;;;;;11.31;65.44;101276.53;5007094;28;20038;-61
2022/05/30 05:33:52;;;;;;;;;;;;;;;11.54;64.12;101271.97;5016295;28;20806;-62
2022/05/30 05:36:20;;;;;;;14.55;5.35;;;;;;;11.46;65.07;101270.44;5011347;28;20648;-61
2022/05/30 05:38:45;;;;;;;11.43;5.00;;;;;;;11.45;65.02;101273.47;5008710;28;20080;-61
2022/05/30 05:41:13;;;;;;;11.70;5.22;;;;;;;11.51;64.35;101270.53;5009649;28;20428;-61
2022/05/30 05:43:39;;;;;;;9.82;5.15;;;;;;;11.51;64.40;101270.53;5008167;28;20044;-60
2022/05/30 05:46:14;;;;;;;9.63;4.97;;;;;;;11.58;64.22;101280.66;5012143;28;20025;-60
2022/05/30 05:48:39;;;;;;;9.50;5.00;;;;;;;11.64;63.77;101280.50;5012042;28;20044;-60
2022/05/30 05:51:05;;;;;;;12.32;4.50;;;;;;;11.67;62.99;101280.00;5014045;28;20030;-60
2022/05/30 05:53:33;;;;;;;8.50;4.05;;;;;;;11.77;62.84;101282.13;5013806;28;20469;-61
2022/05/30 05:55:58;;;;;;;9.93;4.00;;;;;;;11.91;62.24;101289.09;4996533;28;20035;-61
2022/05/30 05:58:23;;;;;;;9.05;3.70;;;;;;;11.94;61.90;101280.22;5010224;28;20714;-61
2022/05/30 06:00:51;;;;;;;9.73;4.38;;;;;;;12.13;62.34;101278.03;5022248;28;20083;-61
2022/05/30 06:03:16;;;;;;;6.60;3.60;;;;;;;12.22;61.27;101282.09;5019089;28;20497;-61
2022/05/30 06:05:42;;;;;;;13.00;3.90;;;;;;;12.33;61.06;101285.88;5008395;28;20129;-61
2022/05/30 06:08:10;;;;;;;10.05;4.05;;;;;;;12.39;60.54;101286.81;5007678;28;20436;-61
2022/05/30 06:11:05;;;;;;;9.43;3.78;;;;;;;12.51;59.94;101288.38;5012184;28;20477;-61
2022/05/30 06:13:23;;;;;;;8.93;3.10;;;;;;;12.61;58.90;101289.63;5005984;28;20393;-61
2022/05/30 06:15:49;;;;;;;10.93;2.80;;;;;;;12.66;58.42;101279.44;5009450;28;20112;-61
2022/05/30 06:18:14;;;;;;;7.45;2.60;;;;;;;12.75;58.70;101291.81;5018039;28;20113;-61
2022/05/30 06:20:41;;;;;;;7.63;2.92;;;;;;;12.81;57.87;101289.06;5015314;28;20034;-61
2022/05/30 06:23:06;;;;;;;8.18;2.83;;;;;;;12.87;57.52;101286.09;5012826;28;20451;-62
2022/05/30 06:25:31;;;;;;;7.35;2.38;;;;;;;12.95;56.63;101290.41;5012138;28;20113;-62
2022/05/30 06:27:57;;;;;;;8.57;1.88;;;;;;;13.05;55.67;101289.66;5011277;28;20034;-61
2022/05/30 06:30:22;;;;;;;7.22;2.20;;;;;;;13.02;55.57;101286.31;5011503;28;20088;-61
2022/05/30 06:32:50;;;;;;;8.43;2.47;;;;;;;13.09;55.54;101288.91;5006968;28;20026;-61
2022/05/30 06:35:16;;;;;;;9.93;3.10;;;;;;;13.14;55.59;101288.13;5005386;28;20034;-61
2022/05/30 06:37:41;;;;;;;8.75;3.00;;;;;;;13.24;55.45;101289.16;5008890;28;20064;-61
2022/05/30 06:40:07;;;;;;;9.95;2.80;;;;;;;13.29;55.92;101290.31;4995407;28;20549;-61
2022/05/30 06:42:32;;;;;;;9.05;2.58;;;;;;;13.36;55.79;101289.00;5011793;28;20038;-61
2022/05/30 06:44:57;;;;;;;7.80;2.30;;;;;;;13.43;55.14;101289.63;5001475;28;20034;-61
2022/05/30 06:47:23;;;;;;;7.55;1.83;;;;;;;13.50;54.53;101289.41;5011391;28;20077;-63
2022/05/30 06:49:53;;;;;;;7.20;2.13;;;;;;;13.51;54.27;101296.69;5009414;28;20041;-61
2022/05/30 06:52:19;;;;;;;7.78;1.73;;;;;;;13.49;54.55;101296.13;5000991;28;20060;-62
2022/05/30 06:54:44;;;;;;;7.63;2.40;;;;;;;13.55;53.89;101299.78;5007353;28;20038;-62
2022/05/30 06:59:53;;;;;;;9.40;1.38;;;;;;;13.60;52.01;101303.50;5008205;28;20563;-62
2022/05/30 07:02:19;;;;;;;6.25;1.60;;;;;;;13.70;52.44;101298.00;5005818;28;20058;-62
2022/05/30 07:04:44;;;;;;;6.45;1.75;;;;;;;13.77;52.63;101303.38;5007676;28;20409;-63
2022/05/30 07:07:10;;;;;;;5.60;1.50;;;;;;;13.88;52.15;101293.16;5005529;28;20068;-63
2022/05/30 07:09:37;;;;;;;5.65;1.48;;;;;;;13.98;52.60;101294.09;5008843;28;20021;-62
2022/05/30 07:12:03;;;;;;;8.13;1.60;;;;;;;14.14;51.81;101300.63;5005983;28;20040;-62
2022/05/30 07:14:29;;;;;;;3.97;1.40;;;;;;;14.20;50.72;101294.00;5012225;28;20042;-64
2022/05/30 07:16:54;;;;;;;4.65;1.40;;;;;;;14.33;50.17;101283.50;5005428;28;20022;-63
2022/05/30 07:19:19;;;;;;;6.10;1.17;;;;;;;14.41;50.09;101294.16;5005752;28;20401;-65
2022/05/30 07:21:45;;;;;;;7.82;1.65;;;;;;;14.47;49.56;101287.50;5004357;28;20068;-64
2022/05/30 07:24:11;;;;;;;8.93;1.17;;;;;;;14.59;48.77;101304.94;5009687;28;20076;-66
2022/05/30 07:26:37;;;;;;;5.55;1.23;;;;;;;14.64;47.01;101298.53;5010393;28;20032;-66
2022/05/30 07:29:03;;;;;;;5.35;1.27;;;;;;;14.73;48.55;101306.13;5009001;28;20030;-66
2022/05/30 07:31:29;;;;;;;5.63;1.15;;;;;;;14.77;47.86;101300.84;5011319;28;20052;-66
2022/05/30 07:33:55;;;;;;;6.32;1.20;;;;;;;14.72;48.37;101300.81;5009044;28;20021;-65
2022/05/30 07:36:25;;;;;;;4.53;1.08;;;;;;;14.64;48.55;101296.59;5001343;28;20117;-65
2022/05/30 07:38:52;;;;;;;5.20;1.27;;;;;;;14.55;48.83;101291.78;5000095;28;20133;-64
2022/05/30 07:41:24;;;;;;;4.97;1.08;;;;;;;14.60;48.83;101298.25;5008512;28;20049;-64
2022/05/30 07:43:50;;;;;;;5.05;1.35;;;;;;;14.70;48.94;101300.28;5008353;28;20036;-63
2022/05/30 07:46:18;;;;;;;7.00;1.02;;;;;;;14.78;47.34;101290.53;4993143;28;20695;-64
2022/05/30 07:48:44;;;;;;;5.28;1.33;;;;;;;14.89;47.63;101293.09;5009525;28;20038;-63
2022/05/30 07:51:11;;;;;;;3.65;1.27;;;;;;;14.93;47.53;101299.84;5009206;28;20030;-63
2022/05/30 07:53:38;;;;;;;4.50;1.25;;;;;;;15.03;47.72;101287.88;5010595;28;20038;-63
2022/05/30 07:56:09;;;;;;;5.03;1.35;;;;;;;15.02;48.62;101288.97;5006496;28;20030;-64
2022/05/30 07:58:34;;;;;;;6.88;1.50;;;;;;;15.09;48.38;101294.31;5010537;28;20036;-64
2022/05/30 08:01:04;;;;;;;2.60;1.10;;;;;;;15.17;47.60;101289.06;4999851;28;20452;-64
2022/05/30 08:03:29;;;;;;;4.30;1.30;;;;;;;15.24;47.38;101291.56;5005976;28;20449;-64
2022/05/30 08:06:25;;;;;;;5.40;1.20;;;;;;;15.33;47.90;101295.53;5009347;28;20029;-64
2022/05/30 08:08:52;;;;;;;4.22;1.40;;;;;;;15.22;46.58;101294.66;5006756;28;20045;-65
2022/05/30 08:11:18;;;;;;;6.15;1.45;;;;;;;15.15;46.74;101291.28;5004962;28;20037;-65
2022/05/30 08:13:45;;;;;;;4.57;1.30;;;;;;;15.21;46.73;101293.00;5009544;28;20034;-64
2022/05/30 08:16:16;;;;;;;3.75;1.30;;;;;;;15.27;46.42;101295.78;5003201;28;20453;-65
2022/05/30 08:18:44;;;;;;;6.93;1.50;;;;;;;15.23;45.97;101299.13;4991201;28;20335;-65
2022/05/30 08:21:10;;;;;;;5.13;1.45;;;;;;;15.19;46.10;101300.78;5003619;28;20059;-65
2022/05/30 08:23:41;;;;;;;4.65;1.17;;;;;;;15.06;46.29;101301.31;5010537;28;20034;-65
2022/05/30 08:26:06;;;;;;;5.95;1.40;;;;;;;15.00;46.69;101293.16;4995841;28;20045;-63
2022/05/30 08:28:31;;;;;;;6.13;1.40;;;;;;;15.05;47.33;101302.44;5001101;28;20026;-64
2022/05/30 08:30:57;;;;;;;5.70;1.67;;;;;;;15.17;46.40;101305.84;5010733;28;20492;-63
2022/05/30 08:33:23;;;;;;;3.83;1.40;;;;;;;15.08;45.63;101301.84;5008702;28;20565;-64
2022/05/30 08:36:05;;;;;;;7.03;1.80;;;;;;;15.25;46.66;101298.88;5008834;28;20096;-63
2022/05/30 08:38:33;;;;;;;4.50;1.40;;;;;;;15.37;45.48;101296.69;5008510;28;20021;-63
2022/05/30 08:43:48;;;;;;;5.15;1.33;;;;;;;15.27;44.99;101298.59;5009992;28;20049;-63
2022/05/30 08:46:32;;;;;;;4.32;1.30;;;;;;;15.55;50.16;101311.28;5009155;28;20231;-62
2022/05/30 08:49:18;;;;;;;2.65;1.30;;;;;;;15.88;50.24;101305.22;5005635;28;20037;-62
2022/05/30 08:51:57;;;;;;;4.88;1.63;;;;;;;16.17;49.45;101296.28;5007450;28;20038;-61
2022/05/30 08:55:03;;;;;;;4.28;1.15;;;;;;;16.36;45.37;101305.81;5011296;28;20117;-61
2022/05/30 08:57:45;;;;;;;6.53;1.48;;;;;;;16.69;45.86;101303.53;4997017;28;20465;-61
2022/05/30 09:00:14;;;;;;;2.33;1.10;;;;;;;16.83;44.50;101304.66;5002941;28;20103;-62
2022/05/30 09:02:47;;;;;;;5.53;1.75;;;;;;;17.07;44.32;101301.22;5007276;28;20061;-62
2022/05/30 09:05:19;;;;;;;2.63;1.17;;;;;;;17.14;44.29;101299.78;5009788;28;20096;-61
2022/05/30 09:07:50;;;;;;;3.58;1.40;;;;;;;17.15;43.20;101303.44;5001158;28;20037;-61
2022/05/30 09:10:28;;;;;;;3.10;1.30;;;;;;;17.12;42.32;101310.44;4993391;28;20080;-61
2022/05/30 09:13:06;;;;;;;3.13;1.42;;;;;;;17.14;43.24;101301.75;4993033;28;20108;-61
2022/05/30 09:15:36;;;;;;;4.55;1.30;;;;;;;17.13;42.49;101306.53;5000171;28;20129;-61
2022/05/30 09:18:10;;;;;;;3.75;1.23;;;;;;;16.98;42.72;101312.19;5007257;28;20036;-61
2022/05/30 09:20:38;;;;;;;4.18;1.30;;;;;;;16.90;41.42;101308.00;5007575;28;20030;-61
2022/05/30 09:23:04;;;;;;;4.18;1.25;;;;;;;16.77;42.10;101308.56;5005749;28;20076;-61
2022/05/30 09:26:00;;;;;;;4.18;1.40;;;;;;;16.91;43.07;101301.25;4997873;28;20196;-61
2022/05/30 09:28:34;;;;;;;3.15;1.30;;;;;;;16.93;41.83;101304.59;5003789;28;20053;-61
2022/05/30 09:31:30;;;;;;;3.63;1.20;;;;;;;16.84;42.06;101306.31;5007138;28;20037;-61
2022/05/30 09:34:33;;;;;;;3.70;1.38;;;;;;;16.98;42.87;101303.78;4999987;28;20512;-61
2022/05/30 09:36:59;;;;;;;2.92;1.00;;;;;;;16.99;42.46;101299.00;4976376;28;20454;-61
2022/05/30 09:39:24;;;;;;;3.75;1.27;;;;;;;16.89;41.83;101299.84;5005694;28;20053;-61
2022/05/30 09:41:55;;;;;;;6.05;1.52;;;;;;;16.88;42.32;101299.03;5008690;28;20072;-60
2022/05/30 09:44:45;;;;;;;3.40;0.93;;;;;;;16.77;42.01;101300.16;5006664;28;20428;-61
2022/05/30 09:47:16;;;;;;;3.00;1.25;;;;;;;16.72;41.92;101302.13;5005824;28;20532;-61
2022/05/30 09:49:48;;;;;;;3.03;1.48;;;;;;;16.65;41.67;101319.22;5008715;28;20022;-62
2022/05/30 09:52:27;;;;;;;3.75;1.20;;;;;;;16.59;42.62;101306.34;5010188;28;20119;-62
2022/05/30 09:54:54;;;;;;;2.78;1.48;;;;;;;16.68;41.82;101302.69;5011634;28;20148;-61
2022/05/30 09:57:39;;;;;;;4.25;1.25;;;;;;;16.63;42.26;101305.50;5009703;28;20041;-61
2022/05/30 10:00:16;;;;;;;3.97;1.02;;;;;;;16.63;42.44;101310.28;5009918;28;20068;-61
2022/05/30 10:02:45;;;;;;;2.10;1.20;;;;;;;16.59;41.65;101304.38;5007435;28;20052;-62
2022/05/30 10:05:13;;;;;;;4.15;1.40;;;;;;;16.42;40.87;101306.63;5012005;28;20030;-61
2022/05/30 10:07:51;;;;;;;5.32;1.15;;;;;;;16.57;41.75;101305.78;5011640;28;20037;-61
2022/05/30 10:10:24;;;;;;;2.45;1.00;;;;;;;16.72;40.87;101305.75;5008948;28;20022;-61
2022/05/30 10:13:01;;;;;;;4.40;1.15;;;;;;;16.63;41.48;101299.91;5007087;28;20894;-62
2022/05/30 10:15:27;;;;;;;2.60;1.20;;;;;;;16.72;41.03;101302.13;5001338;28;20476;-61
2022/05/30 10:17:56;;;;;;;5.25;1.00;;;;;;;16.68;40.81;101301.84;5005842;28;20034;-61
2022/05/30 10:20:42;;;;;;;4.60;1.10;;;;;;;16.76;40.74;101306.06;5005883;28;20031;-61
2022/05/30 10:28:14;;;;;;;3.78;1.38;;;;;;;16.62;40.86;101298.22;5002290;28;20189;-60
2022/05/30 10:29:44;;;;;;;3.28;1.10;;;;;;;16.74;41.64;101297.97;5007995;28;20501;-61
2022/05/30 10:32:27;;;;;;;6.10;1.08;;;;;;;16.73;41.11;101301.84;5015959;28;20419;-60
2022/05/30 10:35:23;;;;;;;1.83;1.10;;;;;;;16.70;40.96;101308.00;5031867;28;20041;-61
2022/05/30 10:37:58;;;;;;;1.88;0.80;;;;;;;16.88;40.56;101307.44;5010893;28;20038;-61
2022/05/30 10:40:50;;;;;;;2.45;0.90;;;;;;;16.90;41.07;101316.41;5010026;28;20494;-62
2022/05/30 10:43:26;;;;;;;17.60;1.67;;;;;;;17.00;41.00;101309.09;5001861;28;20140;-61
2022/05/30 10:46:07;;;;;;;4.82;1.13;;;;;;;17.14;40.53;101311.00;5001391;28;20037;-62
2022/05/30 10:48:37;;;;;;;2.63;1.10;;;;;;;17.29;39.18;101314.84;5010582;28;20034;-62
2022/05/30 10:51:13;;;;;;;3.13;1.00;;;;;;;17.40;38.33;101319.31;5007428;28;20300;-62
2022/05/30 10:53:55;;;;;;;3.17;1.10;;;;;;;17.43;38.31;101310.31;5010254;28;20037;-62
2022/05/30 10:56:33;;;;;;;1.77;0.82;;;;;;;17.60;38.35;101310.78;5009944;28;20026;-61
2022/05/30 10:59:53;;;;;;;2.25;0.70;;;;;;;17.48;37.24;101309.44;5010275;28;20107;-61
2022/05/30 11:02:27;;;;;;;2.00;0.75;;;;;;;17.14;34.41;101316.63;5009482;28;20057;-62
2022/05/30 11:05:06;;;;;;;3.47;0.95;;;;;;;16.94;35.64;101313.88;5008783;28;20050;-62
2022/05/30 11:08:09;;;;;;;2.60;0.85;;;;;;;16.79;36.32;101303.53;4994855;28;20041;-62
2022/05/30 11:10:51;;;;;;;4.00;1.08;;;;;;;16.62;37.07;101309.44;5011571;28;20049;-63
2022/05/30 11:13:45;;;;;;;3.47;1.10;;;;;;;16.51;38.28;101313.38;5005127;28;20031;-65
2022/05/30 11:16:32;;;;;;;5.15;0.90;;;;;;;16.45;39.47;101309.72;5010896;28;20037;-62
2022/05/30 11:19:07;;;;;;;5.82;1.35;;;;;;;16.35;41.12;101317.31;5009739;28;20034;-63
2022/05/30 11:21:50;;;;;;;6.10;1.48;;;;;;;16.32;41.47;101313.09;5011909;28;20064;-64
2022/05/30 11:24:16;;;;;;;6.35;1.45;;;;;;;16.27;41.62;101315.03;5008135;28;20477;-63
2022/05/30 11:26:49;;;;;;;4.03;1.23;;;;;;;16.20;41.45;101318.13;5014869;28;20496;-63
2022/05/30 11:29:49;;;;;;;5.75;1.55;;;;;;;16.17;42.09;101319.53;4993908;28;20057;-63
2022/05/30 11:32:50;;;;;;;4.30;1.27;;;;;;;16.17;42.17;101308.31;5002757;28;20084;-63
2022/05/30 11:35:31;;;;;;;3.63;1.20;;;;;;;16.14;41.95;101316.44;4994146;28;20644;-62
2022/05/30 11:38:29;;;;;;;4.32;1.35;;;;;;;16.16;42.33;101322.63;5008697;28;20404;-63
2022/05/30 11:41:12;;;;;;;2.85;1.30;;;;;;;16.09;41.56;101324.84;5010922;28;20050;-62
2022/05/30 11:43:59;;;;;;;2.95;1.20;;;;;;;16.07;41.96;101319.53;5007563;28;20104;-64
2022/05/30 11:46:47;;;;;;;5.03;1.35;;;;;;;16.01;41.51;101319.81;5008910;28;20125;-66
2022/05/30 11:49:39;;;;;;;5.97;1.42;;;;;;;16.04;41.97;101322.88;5010230;28;20401;-64
2022/05/30 11:52:18;;;;;;;2.35;1.23;;;;;;;16.01;41.22;101315.03;5011376;28;20477;-63
2022/05/30 11:55:08;;;;;;;4.15;1.50;;;;;;;16.05;41.63;101315.31;5010002;28;20034;-62
2022/05/30 11:58:09;;;;;;;3.80;1.48;;;;;;;16.07;42.27;101307.47;5011706;28;20052;-64